sensor_id;sensor_type;location;lat;lon;timestamp;P1;durP1;ratioP1;P2;durP2;ratioP2
78453;SDS011;67750;55.832;49.124;2023-04-24T00:00:12;11.40;;;4.78;;
78453;SDS011;67750;55.832;49.124;2023-04-24T00:02:42;9.08;;;4.80;;
78453;SDS011;67750;55.832;49.124;2023-04-24T00:05:14;12.13;;;5.03;;
78453;SDS011;67750;55.832;49.124;2023-04-24T00:07:44;11.18;;;4.65;;
78453;SDS011;67750;55.832;49.124;2023-04-24T00:10:14;13.93;;;4.50;;
78453;SDS011;67750;55.832;49.124;2023-04-24T00:12:44;11.43;;;4.92;;
78453;SDS011;67750;55.832;49.124;2023-04-24T00:15:13;15.78;;;5.53;;
78453;SDS011;67750;55.832;49.124;2023-04-24T00:17:43;22.65;;;8.45;;
78453;SDS011;67750;55.832;49.124;2023-04-24T00:20:13;20.77;;;7.83;;
78453;SDS011;67750;55.832;49.124;2023-04-24T00:22:42;24.60;;;8.90;;
78453;SDS011;67750;55.832;49.124;2023-04-24T00:25:12;24.75;;;10.03;;
78453;SDS011;67750;55.832;49.124;2023-04-24T00:27:42;32.65;;;10.88;;
78453;SDS011;67750;55.832;49.124;2023-04-24T00:30:11;29.27;;;11.10;;
78453;SDS011;67750;55.832;49.124;2023-04-24T00:32:41;27.60;;;10.98;;
78453;SDS011;67750;55.832;49.124;2023-04-24T00:35:11;30.52;;;10.63;;
78453;SDS011;67750;55.832;49.124;2023-04-24T00:37:42;22.77;;;11.03;;
78453;SDS011;67750;55.832;49.124;2023-04-24T00:40:12;30.92;;;10.93;;
78453;SDS011;67750;55.832;49.124;2023-04-24T00:42:43;25.72;;;11.08;;
78453;SDS011;67750;55.832;49.124;2023-04-24T00:45:12;24.05;;;11.20;;
78453;SDS011;67750;55.832;49.124;2023-04-24T00:47:42;23.00;;;10.98;;
78453;SDS011;67750;55.832;49.124;2023-04-24T00:50:12;25.68;;;10.65;;
78453;SDS011;67750;55.832;49.124;2023-04-24T00:52:43;25.37;;;10.10;;
78453;SDS011;67750;55.832;49.124;2023-04-24T00:55:13;25.05;;;10.28;;
78453;SDS011;67750;55.832;49.124;2023-04-24T00:57:43;23.85;;;11.05;;
78453;SDS011;67750;55.832;49.124;2023-04-24T01:00:14;25.35;;;11.03;;
78453;SDS011;67750;55.832;49.124;2023-04-24T01:02:44;26.57;;;10.70;;
78453;SDS011;67750;55.832;49.124;2023-04-24T01:05:14;29.90;;;11.15;;
78453;SDS011;67750;55.832;49.124;2023-04-24T01:10:15;27.58;;;9.85;;
78453;SDS011;67750;55.832;49.124;2023-04-24T01:12:46;27.13;;;10.53;;
78453;SDS011;67750;55.832;49.124;2023-04-24T01:15:15;31.48;;;11.68;;
78453;SDS011;67750;55.832;49.124;2023-04-24T01:17:46;41.15;;;12.15;;
78453;SDS011;67750;55.832;49.124;2023-04-24T01:20:16;31.60;;;11.95;;
78453;SDS011;67750;55.832;49.124;2023-04-24T01:22:47;35.48;;;11.55;;
78453;SDS011;67750;55.832;49.124;2023-04-24T01:25:17;36.23;;;12.43;;
78453;SDS011;67750;55.832;49.124;2023-04-24T01:27:46;27.58;;;11.60;;
78453;SDS011;67750;55.832;49.124;2023-04-24T01:30:17;34.95;;;11.90;;
78453;SDS011;67750;55.832;49.124;2023-04-24T01:32:46;30.75;;;11.85;;
78453;SDS011;67750;55.832;49.124;2023-04-24T01:35:16;30.02;;;10.72;;
78453;SDS011;67750;55.832;49.124;2023-04-24T01:37:45;32.73;;;12.15;;
78453;SDS011;67750;55.832;49.124;2023-04-24T01:40:15;42.27;;;12.80;;
78453;SDS011;67750;55.832;49.124;2023-04-24T01:42:45;38.35;;;12.90;;
78453;SDS011;67750;55.832;49.124;2023-04-24T01:45:15;30.25;;;11.18;;
78453;SDS011;67750;55.832;49.124;2023-04-24T01:47:44;25.75;;;10.65;;
78453;SDS011;67750;55.832;49.124;2023-04-24T01:50:14;31.12;;;10.75;;
78453;SDS011;67750;55.832;49.124;2023-04-24T01:52:45;26.90;;;10.78;;
78453;SDS011;67750;55.832;49.124;2023-04-24T01:55:15;29.85;;;11.50;;
78453;SDS011;67750;55.832;49.124;2023-04-24T01:57:45;30.68;;;12.15;;
78453;SDS011;67750;55.832;49.124;2023-04-24T02:00:15;27.10;;;10.85;;
78453;SDS011;67750;55.832;49.124;2023-04-24T02:02:45;30.37;;;12.15;;
78453;SDS011;67750;55.832;49.124;2023-04-24T02:05:15;27.07;;;11.63;;
78453;SDS011;67750;55.832;49.124;2023-04-24T02:07:44;28.35;;;10.98;;
78453;SDS011;67750;55.832;49.124;2023-04-24T02:10:14;42.00;;;12.35;;
78453;SDS011;67750;55.832;49.124;2023-04-24T02:12:44;38.10;;;12.88;;
78453;SDS011;67750;55.832;49.124;2023-04-24T02:15:15;40.03;;;11.83;;
78453;SDS011;67750;55.832;49.124;2023-04-24T02:17:45;45.98;;;12.45;;
78453;SDS011;67750;55.832;49.124;2023-04-24T02:20:14;37.13;;;12.55;;
78453;SDS011;67750;55.832;49.124;2023-04-24T02:22:44;33.35;;;12.28;;
78453;SDS011;67750;55.832;49.124;2023-04-24T02:25:14;40.08;;;12.50;;
78453;SDS011;67750;55.832;49.124;2023-04-24T02:27:43;36.88;;;11.95;;
78453;SDS011;67750;55.832;49.124;2023-04-24T02:30:15;37.60;;;12.15;;
78453;SDS011;67750;55.832;49.124;2023-04-24T02:32:45;45.30;;;13.15;;
78453;SDS011;67750;55.832;49.124;2023-04-24T02:35:15;31.15;;;12.13;;
78453;SDS011;67750;55.832;49.124;2023-04-24T02:37:44;33.78;;;12.40;;
78453;SDS011;67750;55.832;49.124;2023-04-24T02:40:14;27.82;;;11.88;;
78453;SDS011;67750;55.832;49.124;2023-04-24T02:42:44;22.27;;;10.90;;
78453;SDS011;67750;55.832;49.124;2023-04-24T02:45:13;26.73;;;10.88;;
78453;SDS011;67750;55.832;49.124;2023-04-24T02:47:43;33.02;;;11.68;;
78453;SDS011;67750;55.832;49.124;2023-04-24T02:50:13;39.65;;;13.98;;
78453;SDS011;67750;55.832;49.124;2023-04-24T02:52:48;32.80;;;11.95;;
78453;SDS011;67750;55.832;49.124;2023-04-24T02:55:27;47.93;;;12.55;;
78453;SDS011;67750;55.832;49.124;2023-04-24T02:58:01;32.88;;;12.93;;
78453;SDS011;67750;55.832;49.124;2023-04-24T03:00:30;30.97;;;12.13;;
78453;SDS011;67750;55.832;49.124;2023-04-24T03:03:00;28.35;;;11.15;;
78453;SDS011;67750;55.832;49.124;2023-04-24T03:05:30;30.62;;;11.90;;
78453;SDS011;67750;55.832;49.124;2023-04-24T03:07:59;28.17;;;11.50;;
78453;SDS011;67750;55.832;49.124;2023-04-24T03:10:29;37.28;;;12.18;;
78453;SDS011;67750;55.832;49.124;2023-04-24T03:12:59;36.73;;;13.62;;
78453;SDS011;67750;55.832;49.124;2023-04-24T03:15:28;32.65;;;12.13;;
78453;SDS011;67750;55.832;49.124;2023-04-24T03:17:58;30.17;;;11.00;;
78453;SDS011;67750;55.832;49.124;2023-04-24T03:20:27;33.20;;;11.48;;
78453;SDS011;67750;55.832;49.124;2023-04-24T03:22:57;32.75;;;10.98;;
78453;SDS011;67750;55.832;49.124;2023-04-24T03:25:27;28.87;;;11.35;;
78453;SDS011;67750;55.832;49.124;2023-04-24T03:27:57;24.35;;;11.30;;
78453;SDS011;67750;55.832;49.124;2023-04-24T03:30:46;39.95;;;12.45;;
78453;SDS011;67750;55.832;49.124;2023-04-24T03:33:16;27.70;;;11.12;;
78453;SDS011;67750;55.832;49.124;2023-04-24T03:38:16;25.95;;;9.65;;
78453;SDS011;67750;55.832;49.124;2023-04-24T03:41:06;26.00;;;10.58;;
78453;SDS011;67750;55.832;49.124;2023-04-24T03:43:55;19.62;;;5.62;;
78453;SDS011;67750;55.832;49.124;2023-04-24T03:46:25;16.15;;;5.25;;
78453;SDS011;67750;55.832;49.124;2023-04-24T03:48:56;13.00;;;4.35;;
78453;SDS011;67750;55.832;49.124;2023-04-24T03:53:59;9.60;;;3.70;;
78453;SDS011;67750;55.832;49.124;2023-04-24T03:56:30;6.72;;;2.90;;
78453;SDS011;67750;55.832;49.124;2023-04-24T03:58:59;11.35;;;3.47;;
78453;SDS011;67750;55.832;49.124;2023-04-24T04:01:29;15.43;;;3.50;;
78453;SDS011;67750;55.832;49.124;2023-04-24T04:07:08;9.83;;;3.17;;
78453;SDS011;67750;55.832;49.124;2023-04-24T04:09:39;11.33;;;3.02;;
78453;SDS011;67750;55.832;49.124;2023-04-24T04:12:09;5.37;;;3.10;;
78453;SDS011;67750;55.832;49.124;2023-04-24T04:14:39;4.25;;;2.55;;
78453;SDS011;67750;55.832;49.124;2023-04-24T04:17:09;7.25;;;2.65;;
78453;SDS011;67750;55.832;49.124;2023-04-24T04:19:38;6.30;;;2.52;;
78453;SDS011;67750;55.832;49.124;2023-04-24T04:22:09;9.13;;;2.60;;
78453;SDS011;67750;55.832;49.124;2023-04-24T04:24:40;6.47;;;3.20;;
78453;SDS011;67750;55.832;49.124;2023-04-24T04:27:10;9.90;;;2.50;;
78453;SDS011;67750;55.832;49.124;2023-04-24T04:29:59;8.55;;;2.62;;
78453;SDS011;67750;55.832;49.124;2023-04-24T04:32:34;8.33;;;2.85;;
78453;SDS011;67750;55.832;49.124;2023-04-24T04:35:04;9.63;;;2.83;;
78453;SDS011;67750;55.832;49.124;2023-04-24T04:37:34;11.22;;;2.52;;
78453;SDS011;67750;55.832;49.124;2023-04-24T04:40:24;7.83;;;2.98;;
78453;SDS011;67750;55.832;49.124;2023-04-24T04:42:56;8.45;;;2.80;;
78453;SDS011;67750;55.832;49.124;2023-04-24T04:45:28;8.03;;;2.62;;
78453;SDS011;67750;55.832;49.124;2023-04-24T04:48:17;5.50;;;2.50;;
78453;SDS011;67750;55.832;49.124;2023-04-24T04:50:47;7.03;;;2.77;;
78453;SDS011;67750;55.832;49.124;2023-04-24T04:53:17;8.45;;;2.55;;
78453;SDS011;67750;55.832;49.124;2023-04-24T04:55:47;6.95;;;2.67;;
78453;SDS011;67750;55.832;49.124;2023-04-24T04:58:18;8.13;;;2.27;;
78453;SDS011;67750;55.832;49.124;2023-04-24T05:00:49;7.60;;;2.55;;
78453;SDS011;67750;55.832;49.124;2023-04-24T05:03:20;10.13;;;2.60;;
78453;SDS011;67750;55.832;49.124;2023-04-24T05:05:52;8.68;;;2.33;;
78453;SDS011;67750;55.832;49.124;2023-04-24T05:08:21;5.30;;;2.67;;
78453;SDS011;67750;55.832;49.124;2023-04-24T05:10:51;5.47;;;2.87;;
78453;SDS011;67750;55.832;49.124;2023-04-24T05:13:21;9.08;;;2.62;;
78453;SDS011;67750;55.832;49.124;2023-04-24T05:15:50;8.83;;;3.33;;
78453;SDS011;67750;55.832;49.124;2023-04-24T05:18:20;8.80;;;3.15;;
78453;SDS011;67750;55.832;49.124;2023-04-24T05:20:50;7.50;;;3.05;;
78453;SDS011;67750;55.832;49.124;2023-04-24T05:23:19;10.75;;;3.50;;
78453;SDS011;67750;55.832;49.124;2023-04-24T05:25:51;8.85;;;3.22;;
78453;SDS011;67750;55.832;49.124;2023-04-24T05:28:20;9.45;;;3.00;;
78453;SDS011;67750;55.832;49.124;2023-04-24T05:30:51;7.78;;;3.25;;
78453;SDS011;67750;55.832;49.124;2023-04-24T05:33:23;15.08;;;3.70;;
78453;SDS011;67750;55.832;49.124;2023-04-24T05:35:52;10.38;;;2.83;;
78453;SDS011;67750;55.832;49.124;2023-04-24T05:38:22;16.00;;;2.92;;
78453;SDS011;67750;55.832;49.124;2023-04-24T05:40:52;10.78;;;3.05;;
78453;SDS011;67750;55.832;49.124;2023-04-24T05:43:21;12.43;;;3.33;;
78453;SDS011;67750;55.832;49.124;2023-04-24T05:45:52;10.82;;;3.17;;
78453;SDS011;67750;55.832;49.124;2023-04-24T05:48:22;9.45;;;2.90;;
78453;SDS011;67750;55.832;49.124;2023-04-24T05:50:52;11.97;;;3.15;;
78453;SDS011;67750;55.832;49.124;2023-04-24T05:53:23;14.28;;;2.70;;
78453;SDS011;67750;55.832;49.124;2023-04-24T05:55:52;11.65;;;3.52;;
78453;SDS011;67750;55.832;49.124;2023-04-24T05:58:22;12.00;;;3.50;;
78453;SDS011;67750;55.832;49.124;2023-04-24T06:00:52;8.50;;;3.22;;
78453;SDS011;67750;55.832;49.124;2023-04-24T06:03:22;15.38;;;3.27;;
78453;SDS011;67750;55.832;49.124;2023-04-24T06:05:51;8.83;;;3.10;;
78453;SDS011;67750;55.832;49.124;2023-04-24T06:08:21;11.60;;;2.90;;
78453;SDS011;67750;55.832;49.124;2023-04-24T06:10:52;9.93;;;3.20;;
78453;SDS011;67750;55.832;49.124;2023-04-24T06:13:23;14.58;;;3.10;;
78453;SDS011;67750;55.832;49.124;2023-04-24T06:16:12;9.83;;;2.60;;
78453;SDS011;67750;55.832;49.124;2023-04-24T06:18:43;9.08;;;2.83;;
78453;SDS011;67750;55.832;49.124;2023-04-24T06:21:17;15.45;;;2.70;;
78453;SDS011;67750;55.832;49.124;2023-04-24T06:23:45;6.92;;;2.47;;
78453;SDS011;67750;55.832;49.124;2023-04-24T06:26:14;6.25;;;2.12;;
78453;SDS011;67750;55.832;49.124;2023-04-24T06:28:44;8.88;;;2.42;;
78453;SDS011;67750;55.832;49.124;2023-04-24T06:31:13;5.05;;;1.95;;
78453;SDS011;67750;55.832;49.124;2023-04-24T06:33:43;7.65;;;1.90;;
78453;SDS011;67750;55.832;49.124;2023-04-24T06:36:13;4.35;;;2.50;;
78453;SDS011;67750;55.832;49.124;2023-04-24T06:38:42;3.72;;;1.82;;
78453;SDS011;67750;55.832;49.124;2023-04-24T06:41:12;3.72;;;1.60;;
78453;SDS011;67750;55.832;49.124;2023-04-24T06:43:41;5.75;;;1.60;;
78453;SDS011;67750;55.832;49.124;2023-04-24T06:46:11;6.85;;;1.90;;
78453;SDS011;67750;55.832;49.124;2023-04-24T06:48:41;4.60;;;1.75;;
78453;SDS011;67750;55.832;49.124;2023-04-24T06:51:11;6.37;;;1.85;;
78453;SDS011;67750;55.832;49.124;2023-04-24T06:53:40;3.20;;;1.92;;
78453;SDS011;67750;55.832;49.124;2023-04-24T06:56:10;5.53;;;1.70;;
78453;SDS011;67750;55.832;49.124;2023-04-24T06:58:39;3.08;;;1.80;;
78453;SDS011;67750;55.832;49.124;2023-04-24T07:01:09;4.92;;;1.50;;
78453;SDS011;67750;55.832;49.124;2023-04-24T07:03:39;5.92;;;1.50;;
78453;SDS011;67750;55.832;49.124;2023-04-24T07:06:09;3.75;;;1.62;;
78453;SDS011;67750;55.832;49.124;2023-04-24T07:11:08;2.85;;;1.40;;
78453;SDS011;67750;55.832;49.124;2023-04-24T07:13:38;4.50;;;1.70;;
78453;SDS011;67750;55.832;49.124;2023-04-24T07:16:08;5.50;;;1.55;;
78453;SDS011;67750;55.832;49.124;2023-04-24T07:18:38;3.22;;;1.82;;
78453;SDS011;67750;55.832;49.124;2023-04-24T07:21:07;4.50;;;1.70;;
78453;SDS011;67750;55.832;49.124;2023-04-24T07:23:37;4.65;;;1.40;;
78453;SDS011;67750;55.832;49.124;2023-04-24T07:26:08;3.27;;;1.52;;
78453;SDS011;67750;55.832;49.124;2023-04-24T07:28:37;2.40;;;1.27;;
78453;SDS011;67750;55.832;49.124;2023-04-24T07:31:07;7.58;;;1.70;;
78453;SDS011;67750;55.832;49.124;2023-04-24T07:33:37;3.25;;;1.55;;
78453;SDS011;67750;55.832;49.124;2023-04-24T07:36:07;3.75;;;1.60;;
78453;SDS011;67750;55.832;49.124;2023-04-24T07:38:38;4.83;;;1.42;;
78453;SDS011;67750;55.832;49.124;2023-04-24T07:41:08;5.10;;;1.57;;
78453;SDS011;67750;55.832;49.124;2023-04-24T07:43:37;4.08;;;1.60;;
78453;SDS011;67750;55.832;49.124;2023-04-24T07:46:07;3.87;;;1.47;;
78453;SDS011;67750;55.832;49.124;2023-04-24T07:48:37;4.25;;;1.40;;
78453;SDS011;67750;55.832;49.124;2023-04-24T07:51:06;3.87;;;1.50;;
78453;SDS011;67750;55.832;49.124;2023-04-24T07:53:37;8.43;;;1.70;;
78453;SDS011;67750;55.832;49.124;2023-04-24T07:56:07;5.00;;;1.50;;
78453;SDS011;67750;55.832;49.124;2023-04-24T07:58:36;2.55;;;1.47;;
78453;SDS011;67750;55.832;49.124;2023-04-24T08:01:06;4.00;;;1.60;;
78453;SDS011;67750;55.832;49.124;2023-04-24T08:03:36;3.37;;;1.30;;
78453;SDS011;67750;55.832;49.124;2023-04-24T08:06:05;2.72;;;1.60;;
78453;SDS011;67750;55.832;49.124;2023-04-24T08:08:35;10.53;;;1.90;;
78453;SDS011;67750;55.832;49.124;2023-04-24T08:11:05;5.87;;;2.02;;
78453;SDS011;67750;55.832;49.124;2023-04-24T08:13:34;3.60;;;1.37;;
78453;SDS011;67750;55.832;49.124;2023-04-24T08:16:04;6.83;;;1.60;;
78453;SDS011;67750;55.832;49.124;2023-04-24T08:18:33;3.83;;;1.35;;
78453;SDS011;67750;55.832;49.124;2023-04-24T08:21:03;5.15;;;1.25;;
78453;SDS011;67750;55.832;49.124;2023-04-24T08:23:32;5.40;;;1.45;;
78453;SDS011;67750;55.832;49.124;2023-04-24T08:26:02;5.10;;;1.77;;
78453;SDS011;67750;55.832;49.124;2023-04-24T08:28:31;2.92;;;1.57;;
78453;SDS011;67750;55.832;49.124;2023-04-24T08:31:01;4.08;;;1.80;;
78453;SDS011;67750;55.832;49.124;2023-04-24T08:33:30;6.25;;;2.33;;
78453;SDS011;67750;55.832;49.124;2023-04-24T08:36:02;3.22;;;1.50;;
78453;SDS011;67750;55.832;49.124;2023-04-24T08:41:01;3.62;;;1.50;;
78453;SDS011;67750;55.832;49.124;2023-04-24T08:43:32;3.52;;;1.52;;
78453;SDS011;67750;55.832;49.124;2023-04-24T08:46:03;5.53;;;1.87;;
78453;SDS011;67750;55.832;49.124;2023-04-24T08:48:33;2.90;;;1.40;;
78453;SDS011;67750;55.832;49.124;2023-04-24T08:51:03;11.88;;;1.77;;
78453;SDS011;67750;55.832;49.124;2023-04-24T08:53:34;3.98;;;1.60;;
78453;SDS011;67750;55.832;49.124;2023-04-24T08:56:04;2.55;;;1.35;;
78453;SDS011;67750;55.832;49.124;2023-04-24T08:58:34;8.88;;;2.10;;
78453;SDS011;67750;55.832;49.124;2023-04-24T09:01:04;2.10;;;1.25;;
78453;SDS011;67750;55.832;49.124;2023-04-24T09:03:34;3.08;;;1.35;;
78453;SDS011;67750;55.832;49.124;2023-04-24T09:06:04;4.42;;;1.80;;
78453;SDS011;67750;55.832;49.124;2023-04-24T09:08:35;3.37;;;1.30;;
78453;SDS011;67750;55.832;49.124;2023-04-24T09:11:05;3.35;;;1.50;;
78453;SDS011;67750;55.832;49.124;2023-04-24T09:13:34;3.87;;;1.30;;
78453;SDS011;67750;55.832;49.124;2023-04-24T09:16:04;3.35;;;1.35;;
78453;SDS011;67750;55.832;49.124;2023-04-24T09:18:33;3.52;;;1.52;;
78453;SDS011;67750;55.832;49.124;2023-04-24T09:21:04;4.70;;;1.50;;
78453;SDS011;67750;55.832;49.124;2023-04-24T09:23:33;5.17;;;1.82;;
78453;SDS011;67750;55.832;49.124;2023-04-24T09:26:03;4.45;;;1.37;;
78453;SDS011;67750;55.832;49.124;2023-04-24T09:31:23;6.75;;;1.70;;
78453;SDS011;67750;55.832;49.124;2023-04-24T09:36:42;4.00;;;1.40;;
78453;SDS011;67750;55.832;49.124;2023-04-24T09:39:12;3.92;;;1.50;;
78453;SDS011;67750;55.832;49.124;2023-04-24T09:44:34;6.17;;;1.82;;
78453;SDS011;67750;55.832;49.124;2023-04-24T09:47:03;3.77;;;1.72;;
78453;SDS011;67750;55.832;49.124;2023-04-24T09:49:34;4.42;;;1.90;;
78453;SDS011;67750;55.832;49.124;2023-04-24T09:52:05;4.15;;;1.70;;
78453;SDS011;67750;55.832;49.124;2023-04-24T09:57:04;8.75;;;1.82;;
78453;SDS011;67750;55.832;49.124;2023-04-24T09:59:34;4.62;;;1.70;;
78453;SDS011;67750;55.832;49.124;2023-04-24T10:02:04;4.03;;;1.90;;
78453;SDS011;67750;55.832;49.124;2023-04-24T10:04:34;5.67;;;2.00;;
78453;SDS011;67750;55.832;49.124;2023-04-24T10:07:04;3.70;;;1.37;;
78453;SDS011;67750;55.832;49.124;2023-04-24T10:09:34;3.47;;;1.20;;
78453;SDS011;67750;55.832;49.124;2023-04-24T10:12:03;2.50;;;1.30;;
78453;SDS011;67750;55.832;49.124;2023-04-24T10:14:35;3.83;;;1.40;;
78453;SDS011;67750;55.832;49.124;2023-04-24T10:17:04;3.08;;;1.65;;
78453;SDS011;67750;55.832;49.124;2023-04-24T10:19:34;3.55;;;1.32;;
78453;SDS011;67750;55.832;49.124;2023-04-24T10:22:04;5.95;;;1.70;;
78453;SDS011;67750;55.832;49.124;2023-04-24T10:24:34;7.53;;;1.80;;
78453;SDS011;67750;55.832;49.124;2023-04-24T10:29:33;3.92;;;1.70;;
78453;SDS011;67750;55.832;49.124;2023-04-24T10:32:06;3.22;;;1.50;;
78453;SDS011;67750;55.832;49.124;2023-04-24T10:34:36;3.40;;;1.30;;
78453;SDS011;67750;55.832;49.124;2023-04-24T10:37:06;6.40;;;1.45;;
78453;SDS011;67750;55.832;49.124;2023-04-24T10:39:36;3.52;;;1.75;;
78453;SDS011;67750;55.832;49.124;2023-04-24T10:44:56;4.37;;;1.60;;
78453;SDS011;67750;55.832;49.124;2023-04-24T10:47:27;5.72;;;1.50;;
78453;SDS011;67750;55.832;49.124;2023-04-24T10:49:58;4.30;;;1.70;;
78453;SDS011;67750;55.832;49.124;2023-04-24T10:52:43;5.85;;;1.57;;
78453;SDS011;67750;55.832;49.124;2023-04-24T10:55:01;5.22;;;1.47;;
78453;SDS011;67750;55.832;49.124;2023-04-24T10:57:32;4.17;;;1.70;;
78453;SDS011;67750;55.832;49.124;2023-04-24T11:02:52;3.72;;;1.67;;
78453;SDS011;67750;55.832;49.124;2023-04-24T11:05:22;7.22;;;1.98;;
78453;SDS011;67750;55.832;49.124;2023-04-24T11:16:20;3.75;;;1.60;;
78453;SDS011;67750;55.832;49.124;2023-04-24T11:18:51;8.03;;;2.22;;
78453;SDS011;67750;55.832;49.124;2023-04-24T11:21:22;12.75;;;2.67;;
78453;SDS011;67750;55.832;49.124;2023-04-24T11:23:51;3.58;;;1.62;;
78453;SDS011;67750;55.832;49.124;2023-04-24T11:26:21;6.58;;;1.77;;
78453;SDS011;67750;55.832;49.124;2023-04-24T11:31:40;4.25;;;1.87;;
78453;SDS011;67750;55.832;49.124;2023-04-24T11:34:12;5.03;;;2.10;;
78453;SDS011;67750;55.832;49.124;2023-04-24T11:39:11;4.08;;;1.42;;
78453;SDS011;67750;55.832;49.124;2023-04-24T11:41:40;4.17;;;1.40;;
78453;SDS011;67750;55.832;49.124;2023-04-24T11:44:09;3.25;;;1.50;;
78453;SDS011;67750;55.832;49.124;2023-04-24T11:46:39;3.10;;;1.60;;
78453;SDS011;67750;55.832;49.124;2023-04-24T11:49:08;4.90;;;1.95;;
78453;SDS011;67750;55.832;49.124;2023-04-24T11:51:38;3.72;;;1.50;;
78453;SDS011;67750;55.832;49.124;2023-04-24T11:54:08;6.75;;;1.90;;
78453;SDS011;67750;55.832;49.124;2023-04-24T11:56:38;6.08;;;1.70;;
78453;SDS011;67750;55.832;49.124;2023-04-24T11:59:07;4.72;;;1.70;;
78453;SDS011;67750;55.832;49.124;2023-04-24T12:04:26;3.58;;;1.42;;
78453;SDS011;67750;55.832;49.124;2023-04-24T12:09:46;4.60;;;1.40;;
78453;SDS011;67750;55.832;49.124;2023-04-24T12:12:16;5.20;;;1.60;;
78453;SDS011;67750;55.832;49.124;2023-04-24T12:17:36;3.47;;;1.62;;
78453;SDS011;67750;55.832;49.124;2023-04-24T12:20:07;3.65;;;1.42;;
78453;SDS011;67750;55.832;49.124;2023-04-24T12:25:28;3.87;;;1.42;;
78453;SDS011;67750;55.832;49.124;2023-04-24T12:30:27;4.03;;;1.50;;
78453;SDS011;67750;55.832;49.124;2023-04-24T12:32:57;5.15;;;1.15;;
78453;SDS011;67750;55.832;49.124;2023-04-24T12:35:27;3.87;;;1.30;;
78453;SDS011;67750;55.832;49.124;2023-04-24T12:43:19;3.35;;;1.62;;
78453;SDS011;67750;55.832;49.124;2023-04-24T12:45:49;3.87;;;1.55;;
78453;SDS011;67750;55.832;49.124;2023-04-24T12:48:19;5.78;;;1.52;;
78453;SDS011;67750;55.832;49.124;2023-04-24T12:50:49;2.58;;;1.60;;
78453;SDS011;67750;55.832;49.124;2023-04-24T12:53:18;2.83;;;1.40;;
78453;SDS011;67750;55.832;49.124;2023-04-24T12:55:48;5.90;;;1.20;;
78453;SDS011;67750;55.832;49.124;2023-04-24T12:58:19;4.85;;;1.57;;
78453;SDS011;67750;55.832;49.124;2023-04-24T13:04:06;4.25;;;1.65;;
78453;SDS011;67750;55.832;49.124;2023-04-24T13:06:35;2.50;;;1.50;;
78453;SDS011;67750;55.832;49.124;2023-04-24T13:09:05;6.55;;;1.52;;
78453;SDS011;67750;55.832;49.124;2023-04-24T13:11:35;5.15;;;1.67;;
78453;SDS011;67750;55.832;49.124;2023-04-24T13:14:04;5.53;;;1.80;;
78453;SDS011;67750;55.832;49.124;2023-04-24T13:16:34;6.70;;;1.95;;
78453;SDS011;67750;55.832;49.124;2023-04-24T13:19:03;5.97;;;2.20;;
78453;SDS011;67750;55.832;49.124;2023-04-24T13:21:33;4.15;;;1.47;;
78453;SDS011;67750;55.832;49.124;2023-04-24T13:24:02;4.45;;;1.60;;
78453;SDS011;67750;55.832;49.124;2023-04-24T13:26:32;3.67;;;1.47;;
78453;SDS011;67750;55.832;49.124;2023-04-24T13:29:02;5.83;;;1.47;;
78453;SDS011;67750;55.832;49.124;2023-04-24T13:31:32;5.05;;;1.70;;
78453;SDS011;67750;55.832;49.124;2023-04-24T13:34:02;4.67;;;1.70;;
78453;SDS011;67750;55.832;49.124;2023-04-24T13:39:02;6.80;;;1.65;;
78453;SDS011;67750;55.832;49.124;2023-04-24T13:41:32;6.08;;;1.85;;
78453;SDS011;67750;55.832;49.124;2023-04-24T13:44:03;3.85;;;1.82;;
78453;SDS011;67750;55.832;49.124;2023-04-24T13:46:33;7.75;;;2.72;;
78453;SDS011;67750;55.832;49.124;2023-04-24T13:49:02;3.77;;;1.80;;
78453;SDS011;67750;55.832;49.124;2023-04-24T13:51:32;6.08;;;1.92;;
78453;SDS011;67750;55.832;49.124;2023-04-24T13:54:02;6.17;;;1.60;;
78453;SDS011;67750;55.832;49.124;2023-04-24T13:56:31;4.22;;;1.70;;
78453;SDS011;67750;55.832;49.124;2023-04-24T13:59:01;4.08;;;1.60;;
78453;SDS011;67750;55.832;49.124;2023-04-24T14:01:31;5.65;;;1.57;;
78453;SDS011;67750;55.832;49.124;2023-04-24T14:04:01;8.40;;;1.77;;
78453;SDS011;67750;55.832;49.124;2023-04-24T14:06:30;5.97;;;1.90;;
78453;SDS011;67750;55.832;49.124;2023-04-24T14:09:00;2.85;;;1.70;;
78453;SDS011;67750;55.832;49.124;2023-04-24T14:11:29;2.85;;;1.70;;
78453;SDS011;67750;55.832;49.124;2023-04-24T14:13:59;6.12;;;1.62;;
78453;SDS011;67750;55.832;49.124;2023-04-24T14:16:30;6.22;;;1.60;;
78453;SDS011;67750;55.832;49.124;2023-04-24T14:18:59;3.67;;;1.67;;
78453;SDS011;67750;55.832;49.124;2023-04-24T14:21:29;7.75;;;1.90;;
78453;SDS011;67750;55.832;49.124;2023-04-24T14:23:59;7.30;;;2.37;;
78453;SDS011;67750;55.832;49.124;2023-04-24T14:26:29;5.65;;;2.10;;
78453;SDS011;67750;55.832;49.124;2023-04-24T14:28:59;3.47;;;1.70;;
78453;SDS011;67750;55.832;49.124;2023-04-24T14:31:28;5.33;;;1.75;;
78453;SDS011;67750;55.832;49.124;2023-04-24T14:33:58;2.72;;;1.50;;
78453;SDS011;67750;55.832;49.124;2023-04-24T14:36:27;4.67;;;1.92;;
78453;SDS011;67750;55.832;49.124;2023-04-24T14:38:58;4.00;;;1.82;;
78453;SDS011;67750;55.832;49.124;2023-04-24T14:41:29;5.53;;;2.20;;
78453;SDS011;67750;55.832;49.124;2023-04-24T14:44:01;4.00;;;2.20;;
78453;SDS011;67750;55.832;49.124;2023-04-24T14:46:31;6.75;;;2.30;;
78453;SDS011;67750;55.832;49.124;2023-04-24T14:49:01;7.53;;;2.05;;
78453;SDS011;67750;55.832;49.124;2023-04-24T14:51:31;6.00;;;2.12;;
78453;SDS011;67750;55.832;49.124;2023-04-24T14:54:00;5.37;;;2.27;;
78453;SDS011;67750;55.832;49.124;2023-04-24T14:56:30;5.58;;;2.75;;
78453;SDS011;67750;55.832;49.124;2023-04-24T14:58:59;6.97;;;2.30;;
78453;SDS011;67750;55.832;49.124;2023-04-24T15:01:29;5.20;;;2.30;;
78453;SDS011;67750;55.832;49.124;2023-04-24T15:03:59;6.12;;;1.70;;
78453;SDS011;67750;55.832;49.124;2023-04-24T15:06:29;4.87;;;2.08;;
78453;SDS011;67750;55.832;49.124;2023-04-24T15:08:59;11.20;;;2.60;;
78453;SDS011;67750;55.832;49.124;2023-04-24T15:11:29;6.10;;;1.87;;
78453;SDS011;67750;55.832;49.124;2023-04-24T15:13:58;8.68;;;2.35;;
78453;SDS011;67750;55.832;49.124;2023-04-24T15:16:28;5.85;;;2.10;;
78453;SDS011;67750;55.832;49.124;2023-04-24T15:18:58;5.60;;;2.47;;
78453;SDS011;67750;55.832;49.124;2023-04-24T15:21:28;7.05;;;3.50;;
78453;SDS011;67750;55.832;49.124;2023-04-24T15:23:59;11.40;;;4.05;;
78453;SDS011;67750;55.832;49.124;2023-04-24T15:26:28;8.48;;;3.00;;
78453;SDS011;67750;55.832;49.124;2023-04-24T15:28:58;6.87;;;2.30;;
78453;SDS011;67750;55.832;49.124;2023-04-24T15:31:27;7.95;;;3.17;;
78453;SDS011;67750;55.832;49.124;2023-04-24T15:33:57;5.37;;;3.17;;
78453;SDS011;67750;55.832;49.124;2023-04-24T15:36:26;10.25;;;3.40;;
78453;SDS011;67750;55.832;49.124;2023-04-24T15:38:56;7.95;;;2.90;;
78453;SDS011;67750;55.832;49.124;2023-04-24T15:41:25;7.65;;;3.37;;
78453;SDS011;67750;55.832;49.124;2023-04-24T15:43:55;10.32;;;3.50;;
78453;SDS011;67750;55.832;49.124;2023-04-24T15:46:24;10.60;;;3.42;;
78453;SDS011;67750;55.832;49.124;2023-04-24T15:48:54;10.48;;;3.83;;
78453;SDS011;67750;55.832;49.124;2023-04-24T15:51:23;9.38;;;4.22;;
78453;SDS011;67750;55.832;49.124;2023-04-24T15:53:53;11.55;;;3.85;;
78453;SDS011;67750;55.832;49.124;2023-04-24T15:56:23;6.67;;;3.22;;
78453;SDS011;67750;55.832;49.124;2023-04-24T15:58:52;7.90;;;3.40;;